Time;durP1;ratioP1;P1;durP2;ratioP2;P2;SDS_P1;SDS_P2;PMS_P1;PMS_P2;Temp;Humidity;BMP_temperature;BMP_pressure;BME280_temperature;BME280_humidity;BME280_pressure;Samples;Min_cycle;Max_cycle;Signal;HPM_P1;HPM_P2
2020/12/26 00:02:22;;;;;;;2.85;1.45;;;;;;;0.93;77.83;96887.88;4956427;28;20045;-53
2020/12/26 00:04:49;;;;;;;2.70;1.50;;;;;;;0.95;79.10;96889.44;4979764;28;20038;-50
2020/12/26 00:07:16;;;;;;;2.08;1.42;;;;;;;0.97;81.22;96896.34;4942294;28;23398;-51
2020/12/26 00:09:43;;;;;;;1.98;1.65;;;;;;;0.95;80.47;96894.63;4986796;28;20593;-49
2020/12/26 00:12:10;;;;;;;2.08;1.50;;;;;;;0.98;79.21;96887.63;4943259;28;20046;-54
2020/12/26 00:14:37;;;;;;;2.42;1.52;;;;;;;0.97;81.61;96888.56;4979511;28;20130;-50
2020/12/26 00:17:05;;;;;;;2.72;1.60;;;;;;;0.97;82.35;96883.38;4988156;28;20501;-51
2020/12/26 00:19:33;;;;;;;2.75;1.60;;;;;;;0.93;82.89;96885.28;4946773;28;20508;-51
2020/12/26 00:22:00;;;;;;;2.85;1.50;;;;;;;0.87;82.96;96885.56;4983467;28;20034;-52
2020/12/26 00:24:26;;;;;;;4.05;2.20;;;;;;;0.89;84.98;96879.34;4928430;28;20042;-55
2020/12/26 00:26:56;;;;;;;3.85;1.58;;;;;;;0.83;84.97;96879.69;4986779;28;20612;-49
2020/12/26 00:29:23;;;;;;;2.10;1.58;;;;;;;0.57;85.53;96888.69;4946204;28;20625;-53
2020/12/26 00:31:51;;;;;;;3.90;2.20;;;;;;;0.58;89.06;96882.59;4980252;28;20038;-52
2020/12/26 00:34:18;;;;;;;4.15;2.00;;;;;;;0.66;91.29;96877.91;4953510;28;20046;-53
2020/12/26 00:36:45;;;;;;;5.03;2.40;;;;;;;0.67;92.97;96882.16;4974916;28;20046;-50
2020/12/26 00:39:12;;;;;;;3.20;2.40;;;;;;;0.71;95.94;96888.03;4944803;28;20045;-51
2020/12/26 00:41:39;;;;;;;4.03;2.65;;;;;;;0.67;94.69;96889.94;4986048;28;20050;-50
2020/12/26 00:44:06;;;;;;;5.78;2.60;;;;;;;0.67;94.79;96889.94;4948343;28;20046;-49
2020/12/26 00:46:33;;;;;;;4.95;2.80;;;;;;;0.65;97.28;96890.94;4985083;28;20046;-55
2020/12/26 00:49:00;;;;;;;4.65;2.83;;;;;;;0.64;97.29;96884.91;4951304;28;20470;-56
2020/12/26 00:51:28;;;;;;;5.00;2.70;;;;;;;0.58;97.61;96895.56;4959325;28;20397;-49
2020/12/26 00:53:55;;;;;;;4.65;2.83;;;;;;;0.64;98.47;96895.28;4955195;28;20516;-49
2020/12/26 00:56:23;;;;;;;4.32;2.60;;;;;;;0.56;99.54;96904.34;4984443;28;20141;-52
2020/12/26 00:58:50;;;;;;;6.43;3.15;;;;;;;0.59;97.40;96904.22;4975901;28;20129;-51
2020/12/26 01:01:17;;;;;;;2.55;1.70;;;;;;;0.55;97.65;96906.13;4981500;28;20066;-52
2020/12/26 01:03:57;;;;;;;5.32;3.10;;;;;;;0.63;99.23;96919.56;4970146;28;20537;-52
2020/12/26 01:06:24;;;;;;;4.95;2.92;;;;;;;0.46;99.17;96925.53;4952621;28;20473;-49
2020/12/26 01:08:53;;;;;;;4.45;2.75;;;;;;;0.44;99.68;96932.53;4980818;28;20093;-53
2020/12/26 01:11:20;;;;;;;4.95;3.00;;;;;;;0.49;100.00;96929.75;4954018;28;20552;-53
2020/12/26 01:13:47;;;;;;;5.63;3.08;;;;;;;0.44;99.06;96936.88;4987341;28;20089;-50
2020/12/26 01:16:14;;;;;;;4.90;3.10;;;;;;;0.50;100.00;96943.56;4945947;28;20141;-50
2020/12/26 01:18:41;;;;;;;5.55;3.42;;;;;;;0.50;100.00;96940.97;4983441;28;20042;-48
2020/12/26 01:21:13;;;;;;;8.48;4.40;;;;;;;0.57;99.69;96950.16;4949730;28;20482;-48
2020/12/26 01:23:41;;;;;;;5.90;3.03;;;;;;;0.46;99.66;96946.28;4983549;28;20062;-52
2020/12/26 01:26:09;;;;;;;4.50;3.28;;;;;;;0.42;100.00;96942.16;4949164;28;20042;-51
2020/12/26 01:28:38;;;;;;;5.53;3.37;;;;;;;0.42;100.00;96942.16;4985418;28;20112;-51
2020/12/26 01:31:05;;;;;;;6.22;2.95;;;;;;;0.37;100.00;96943.28;4947863;28;20035;-53
2020/12/26 01:33:32;;;;;;;5.75;3.40;;;;;;;0.42;100.00;96939.56;4983143;28;20076;-50
2020/12/26 01:35:59;;;;;;;5.78;3.30;;;;;;;0.45;100.00;96938.59;4946872;28;20053;-50
2020/12/26 01:38:26;;;;;;;7.20;3.90;;;;;;;0.40;100.00;96927.56;4967804;28;20042;-50
2020/12/26 01:40:54;;;;;;;8.32;3.70;;;;;;;0.36;100.00;96929.47;4945385;28;20074;-52
2020/12/26 01:43:22;;;;;;;5.75;3.60;;;;;;;0.36;100.00;96928.63;4969292;28;20045;-49
2020/12/26 01:45:51;;;;;;;6.60;4.00;;;;;;;0.39;100.00;96937.13;4952908;28;20041;-49
2020/12/26 01:48:18;;;;;;;6.13;3.45;;;;;;;0.34;100.00;96940.81;4979649;28;20046;-50
2020/12/26 01:50:46;;;;;;;6.75;4.18;;;;;;;0.36;100.00;96941.59;4985460;28;20038;-48
2020/12/26 01:53:13;;;;;;;5.93;3.70;;;;;;;0.37;100.00;96938.09;4954528;28;20524;-49
2020/12/26 01:55:41;;;;;;;8.40;4.07;;;;;;;0.35;100.00;96926.97;4976483;28;20101;-52
2020/12/26 01:58:12;;;;;;;6.28;3.85;;;;;;;0.33;100.00;96929.59;4930737;28;20247;-51
2020/12/26 02:00:41;;;;;;;5.68;4.15;;;;;;;0.31;100.00;96923.66;4986014;28;20569;-48
2020/12/26 02:03:09;;;;;;;6.82;3.20;;;;;;;0.25;100.00;96931.72;4951423;28;20035;-50
2020/12/26 02:05:37;;;;;;;7.72;3.70;;;;;;;0.25;100.00;96926.53;4981977;28;20589;-52
2020/12/26 02:08:04;;;;;;;7.13;4.05;;;;;;;0.27;100.00;96935.06;4948391;28;20053;-51
2020/12/26 02:10:33;;;;;;;7.43;3.55;;;;;;;0.21;100.00;96932.78;4982562;28;20241;-50
2020/12/26 02:13:00;;;;;;;8.82;4.15;;;;;;;0.25;100.00;96933.47;4942069;28;20069;-50
2020/12/26 02:15:27;;;;;;;6.30;3.70;;;;;;;0.12;100.00;96933.19;4986885;28;20049;-50
2020/12/26 02:17:55;;;;;;;6.47;3.55;;;;;;;0.08;100.00;96924.69;4954799;28;20566;-54
2020/12/26 02:20:34;;;;;;;7.32;3.90;;;;;;;0.11;100.00;96944.47;4979984;28;20049;-53
2020/12/26 02:23:03;;;;;;;6.35;4.00;;;;;;;0.06;100.00;96930.84;4957099;28;20276;-51
2020/12/26 02:25:33;;;;;;;6.10;3.53;;;;;;;0.00;100.00;96929.41;4985889;28;20042;-55
2020/12/26 02:28:00;;;;;;;8.55;3.97;;;;;;;-0.03;100.00;96932.13;4936059;28;20200;-50
2020/12/26 02:30:27;;;;;;;7.13;3.83;;;;;;;-0.01;100.00;96935.47;4983989;28;20050;-49
2020/12/26 02:32:55;;;;;;;9.13;4.30;;;;;;;-0.02;100.00;96944.16;4946647;28;22448;-54
2020/12/26 02:35:22;;;;;;;7.40;3.75;;;;;;;0.06;100.00;96944.66;4981528;28;20555;-50
2020/12/26 02:37:50;;;;;;;8.48;4.25;;;;;;;-0.03;100.00;96951.09;4954868;28;20047;-54
2020/12/26 02:40:17;;;;;;;7.00;3.90;;;;;;;0.03;100.00;96951.72;4990225;28;20578;-53
2020/12/26 02:42:45;;;;;;;6.65;4.15;;;;;;;0.05;100.00;96939.56;4988121;28;20065;-50
2020/12/26 02:45:13;;;;;;;6.32;3.92;;;;;;;0.02;100.00;96947.47;4949674;28;20453;-50
2020/12/26 02:47:40;;;;;;;6.45;4.20;;;;;;;0.06;100.00;96952.44;4992339;28;20423;-48
2020/12/26 02:50:07;;;;;;;8.25;3.45;;;;;;;0.02;100.00;96958.66;4948538;28;20117;-51
2020/12/26 02:52:35;;;;;;;8.57;4.30;;;;;;;0.04;100.00;96971.59;4986753;28;20409;-50
2020/12/26 02:55:02;;;;;;;5.95;4.00;;;;;;;0.03;100.00;96962.09;4972128;28;20038;-55
2020/12/26 02:57:30;;;;;;;6.85;4.10;;;;;;;0.02;100.00;96965.63;4988718;28;20486;-52
2020/12/26 02:59:58;;;;;;;6.53;4.03;;;;;;;0.01;100.00;96969.97;4955332;28;20034;-52
2020/12/26 03:02:25;;;;;;;6.40;3.40;;;;;;;-0.05;100.00;96975.41;4988319;28;20042;-54
2020/12/26 03:04:52;;;;;;;6.38;3.85;;;;;;;-0.14;100.00;96974.03;4943097;28;20046;-53
2020/12/26 03:07:19;;;;;;;5.88;3.53;;;;;;;-0.13;100.00;96969.72;4985375;28;20129;-49
2020/12/26 03:09:47;;;;;;;5.75;3.60;;;;;;;-0.08;100.00;96970.34;4943818;28;20046;-50
2020/12/26 03:12:14;;;;;;;7.10;3.65;;;;;;;-0.10;100.00;96967.84;4986750;28;20092;-51
2020/12/26 03:14:41;;;;;;;6.85;3.47;;;;;;;0.14;100.00;96965.09;4958244;28;20050;-51
2020/12/26 03:17:09;;;;;;;6.20;3.78;;;;;;;-0.06;100.00;96961.59;4986760;28;20536;-48
2020/12/26 03:19:37;;;;;;;7.80;4.13;;;;;;;-0.04;100.00;96974.50;4937366;28;20050;-51
2020/12/26 03:22:04;;;;;;;7.38;3.88;;;;;;;0.02;100.00;96970.78;4983852;28;20045;-54
2020/12/26 03:24:32;;;;;;;9.10;4.18;;;;;;;-0.02;100.00;96983.91;4951116;28;20026;-48
2020/12/26 03:26:58;;;;;;;6.53;3.70;;;;;;;0.00;100.00;96983.84;4981372;28;20486;-50
2020/12/26 03:29:26;;;;;;;8.98;4.30;;;;;;;0.01;100.00;96985.53;4987954;28;20042;-50
2020/12/26 03:31:54;;;;;;;5.65;3.95;;;;;;;-0.03;100.00;96989.16;4953422;28;20574;-49
2020/12/26 03:34:22;;;;;;;6.50;3.40;;;;;;;-0.08;100.00;96989.34;4968916;28;20094;-48
2020/12/26 03:36:50;;;;;;;8.48;3.33;;;;;;;-0.10;100.00;96991.16;4945477;28;20116;-50
2020/12/26 03:39:17;;;;;;;9.20;4.05;;;;;;;-0.12;100.00;96995.56;4986253;28;20043;-49
2020/12/26 03:41:44;;;;;;;6.60;3.85;;;;;;;-0.10;100.00;97000.69;4946718;28;20057;-51
2020/12/26 03:44:12;;;;;;;6.68;4.18;;;;;;;-0.17;100.00;96994.94;4990099;28;20046;-52
2020/12/26 03:46:40;;;;;;;5.85;4.00;;;;;;;-0.25;100.00;96994.41;4943353;28;20552;-48
2020/12/26 03:49:07;;;;;;;7.13;4.22;;;;;;;-0.32;100.00;96993.81;4985563;28;20035;-53
2020/12/26 03:51:35;;;;;;;6.95;3.83;;;;;;;-0.35;100.00;96999.13;4950470;28;20057;-51
2020/12/26 03:54:02;;;;;;;7.65;4.18;;;;;;;-0.28;100.00;96992.78;4988862;28;20038;-53
2020/12/26 03:56:30;;;;;;;8.88;4.25;;;;;;;-0.25;100.00;96992.66;4950792;28;20042;-50
2020/12/26 03:58:57;;;;;;;7.05;4.28;;;;;;;-0.19;100.00;96998.50;4980175;28;20141;-51
2020/12/26 04:01:24;;;;;;;7.65;4.22;;;;;;;-0.16;100.00;96993.19;4946061;28;20050;-49
2020/12/26 04:03:52;;;;;;;6.70;4.85;;;;;;;-0.14;100.00;96996.53;4984953;28;20031;-51
2020/12/26 04:06:19;;;;;;;6.90;4.15;;;;;;;-0.05;100.00;97003.94;4953033;28;20048;-51
2020/12/26 04:08:48;;;;;;;7.50;4.35;;;;;;;0.03;100.00;97009.59;4990801;28;20050;-50
2020/12/26 04:11:15;;;;;;;8.13;3.78;;;;;;;-0.06;100.00;97002.25;4983688;28;20039;-48
2020/12/26 04:13:42;;;;;;;6.93;3.97;;;;;;;-0.02;100.00;97003.78;4963558;28;20485;-51
2020/12/26 04:16:10;;;;;;;6.97;4.47;;;;;;;-0.05;100.00;97007.34;4987491;28;20034;-49
2020/12/26 04:18:38;;;;;;;7.13;4.03;;;;;;;0.05;100.00;97005.22;4946681;28;20050;-52
2020/12/26 04:21:06;;;;;;;7.05;4.15;;;;;;;-0.08;100.00;97014.41;4988179;28;20042;-49
2020/12/26 04:23:34;;;;;;;8.20;4.47;;;;;;;-0.13;100.00;97012.03;4949557;28;20077;-49
2020/12/26 04:26:03;;;;;;;7.68;4.72;;;;;;;-0.07;100.00;97016.09;4985580;28;20054;-49
2020/12/26 04:28:30;;;;;;;7.38;4.18;;;;;;;-0.11;100.00;97023.16;4931822;28;20045;-50
2020/12/26 04:30:57;;;;;;;6.85;4.50;;;;;;;-0.13;100.00;97021.56;4985553;28;20042;-53
2020/12/26 04:33:24;;;;;;;8.20;4.00;;;;;;;-0.20;100.00;97030.50;4954088;28;20497;-49
2020/12/26 04:35:51;;;;;;;7.07;4.63;;;;;;;-0.29;100.00;97034.31;4981975;28;20042;-51
2020/12/26 04:38:18;;;;;;;9.07;4.93;;;;;;;-0.30;100.00;97032.66;4945053;28;20493;-50
2020/12/26 04:40:47;;;;;;;7.45;4.80;;;;;;;-0.25;100.00;97023.75;4984980;28;20038;-51
2020/12/26 04:43:15;;;;;;;7.30;4.85;;;;;;;-0.07;100.00;97016.09;4947129;28;20492;-48
2020/12/26 04:45:42;;;;;;;8.77;5.07;;;;;;;-0.14;100.00;97025.03;4979236;28;20046;-52
2020/12/26 04:48:14;;;;;;;8.82;5.20;;;;;;;-0.22;100.00;97042.69;4957104;28;20047;-49
2020/12/26 04:50:46;;;;;;;8.68;4.70;;;;;;;-0.22;100.00;97045.28;4984508;28;20462;-49
2020/12/26 04:53:15;;;;;;;7.97;5.07;;;;;;;-0.16;100.00;97037.25;4940642;28;23321;-50
2020/12/26 04:55:47;;;;;;;8.63;4.63;;;;;;;-0.25;100.00;97044.47;4985173;28;20038;-51
2020/12/26 04:58:17;;;;;;;6.63;3.88;;;;;;;-0.26;100.00;97042.81;4954538;28;20532;-50
2020/12/26 05:00:45;;;;;;;8.60;4.72;;;;;;;-0.14;100.00;97049.22;4979458;28;20042;-48
2020/12/26 05:03:14;;;;;;;6.13;4.10;;;;;;;-0.21;100.00;97057.31;4985421;28;20041;-54
2020/12/26 05:05:43;;;;;;;8.90;4.68;;;;;;;-0.17;100.00;97054.56;4958739;28;20042;-52
2020/12/26 05:08:12;;;;;;;8.73;4.00;;;;;;;-0.22;100.00;97061.66;4982399;28;20034;-51
2020/12/26 05:10:40;;;;;;;8.43;4.22;;;;;;;-0.12;100.00;97073.31;4942304;28;20068;-49
2020/12/26 05:13:08;;;;;;;6.47;3.85;;;;;;;-0.08;98.59;97079.22;4987376;28;20060;-50
2020/12/26 05:15:36;;;;;;;6.78;3.95;;;;;;;-0.07;97.68;97080.91;4942934;28;20387;-51
2020/12/26 05:18:03;;;;;;;9.10;4.20;;;;;;;-0.06;98.63;97083.44;4982824;28;20050;-50
2020/12/26 05:20:31;;;;;;;9.88;4.55;;;;;;;-0.04;98.73;97080.78;4956433;28;20046;-54
2020/12/26 05:23:07;;;;;;;6.40;4.40;;;;;;;0.05;99.67;97088.19;4985708;28;20453;-54
2020/12/26 05:25:37;;;;;;;7.18;3.95;;;;;;;0.06;100.00;97091.63;4951288;28;20089;-53
2020/12/26 05:28:10;;;;;;;10.00;4.78;;;;;;;-0.02;100.00;97081.56;4983816;28;20042;-53
2020/12/26 05:30:38;;;;;;;7.63;4.60;;;;;;;-0.09;100.00;97087.91;4948970;28;20035;-52
2020/12/26 05:33:06;;;;;;;7.72;4.53;;;;;;;-0.07;100.00;97086.09;4985479;28;20054;-53
2020/12/26 05:35:39;;;;;;;5.68;3.15;;;;;;;-0.16;100.00;97089.91;4947017;28;20057;-53
2020/12/26 05:38:15;;;;;;;10.02;5.15;;;;;;;-0.18;100.00;97091.72;4986693;28;20042;-52
2020/12/26 05:40:43;;;;;;;9.40;4.88;;;;;;;-0.18;100.00;97089.13;4952290;28;20038;-54
2020/12/26 05:43:11;;;;;;;12.20;6.78;;;;;;;-0.10;100.00;97102.63;4981368;28;20074;-51
2020/12/26 05:45:40;;;;;;;10.55;5.22;;;;;;;-0.09;100.00;97093.09;4945674;28;20054;-51
2020/12/26 05:48:08;;;;;;;12.55;6.90;;;;;;;0.02;100.00;97090.91;4986099;28;20144;-52
2020/12/26 05:50:36;;;;;;;11.88;6.22;;;;;;;0.03;100.00;97091.75;4946367;28;20046;-55
2020/12/26 05:53:04;;;;;;;12.20;6.47;;;;;;;0.00;100.00;97103.09;4985944;28;20042;-50
2020/12/26 05:55:38;;;;;;;11.15;6.55;;;;;;;-0.07;100.00;97109.41;4955606;28;20035;-50
2020/12/26 05:58:06;;;;;;;12.52;7.03;;;;;;;0.02;100.00;97114.22;4977979;28;20043;-52
2020/12/26 06:00:34;;;;;;;13.10;6.75;;;;;;;0.04;100.00;97107.25;4956417;28;20054;-53
2020/12/26 06:03:21;;;;;;;12.55;7.32;;;;;;;0.03;100.00;97113.31;4974497;28;20038;-51
2020/12/26 06:05:49;;;;;;;14.30;7.78;;;;;;;-0.04;100.00;97120.50;4967049;28;20049;-52
2020/12/26 06:08:19;;;;;;;12.23;7.90;;;;;;;-0.11;100.00;97118.25;4980356;28;20050;-52
2020/12/26 06:10:49;;;;;;;13.50;7.40;;;;;;;-0.14;100.00;97116.59;4978199;28;20045;-51
2020/12/26 06:13:18;;;;;;;12.60;6.80;;;;;;;-0.12;100.00;97113.97;4950944;28;20081;-52
2020/12/26 06:15:50;;;;;;;16.02;8.65;;;;;;;-0.13;100.00;97115.72;5000557;28;20049;-51
2020/12/26 06:18:22;;;;;;;15.60;9.48;;;;;;;-0.11;100.00;97126.00;4957870;28;20046;-51
2020/12/26 06:20:51;;;;;;;14.15;8.00;;;;;;;-0.25;100.00;97126.56;4999075;28;20039;-51
2020/12/26 06:23:20;;;;;;;18.65;9.00;;;;;;;-0.25;100.00;97127.41;4942554;28;20042;-50
2020/12/26 06:25:48;;;;;;;13.75;6.68;;;;;;;-0.35;100.00;97131.28;4985006;28;20404;-50
2020/12/26 06:28:29;;;;;;;11.82;7.30;;;;;;;-0.42;100.00;97139.38;4949526;28;20527;-48
2020/12/26 06:30:59;;;;;;;19.60;9.38;;;;;;;-0.39;100.00;97127.13;4962699;28;20046;-51
2020/12/26 06:33:29;;;;;;;15.48;8.55;;;;;;;-0.39;100.00;97127.13;4958714;28;20034;-50
2020/12/26 06:35:59;;;;;;;17.27;8.98;;;;;;;-0.40;100.00;97122.03;4980489;28;20053;-50
2020/12/26 06:38:28;;;;;;;17.75;9.63;;;;;;;-0.38;100.00;97125.38;4940721;28;20469;-49
2020/12/26 06:40:57;;;;;;;21.30;10.30;;;;;;;-0.43;100.00;97128.16;4981884;28;20062;-49
2020/12/26 06:43:47;;;;;;;16.80;9.73;;;;;;;-0.51;100.00;97125.03;4935631;28;21635;-50
2020/12/26 06:46:39;;;;;;;20.17;10.20;;;;;;;-0.58;100.00;97123.59;4983091;28;20559;-51
2020/12/26 06:49:27;;;;;;;16.88;9.10;;;;;;;-0.66;100.00;97125.63;4951797;28;20096;-49
2020/12/26 06:51:55;;;;;;;20.15;10.00;;;;;;;-0.72;100.00;97129.31;4981909;28;20137;-53
2020/12/26 06:54:42;;;;;;;18.85;9.75;;;;;;;-0.76;100.00;97132.91;4951636;28;20047;-51
2020/12/26 06:57:09;;;;;;;20.13;9.73;;;;;;;-0.68;100.00;97133.47;4984764;28;20074;-53
2020/12/26 06:59:36;;;;;;;20.25;10.00;;;;;;;-0.65;100.00;97132.50;4936535;28;20125;-49
2020/12/26 07:02:05;;;;;;;21.35;10.00;;;;;;;-0.54;100.00;97135.53;4984305;28;20657;-50
2020/12/26 07:04:40;;;;;;;19.27;10.48;;;;;;;-0.48;100.00;97137.88;4944957;28;20126;-50
2020/12/26 07:07:09;;;;;;;17.63;9.05;;;;;;;-0.47;100.00;97149.06;4988429;28;20038;-53
2020/12/26 07:09:47;;;;;;;16.95;9.30;;;;;;;-0.43;100.00;97154.06;4958250;28;20050;-53
2020/12/26 07:12:14;;;;;;;15.25;7.97;;;;;;;-0.43;100.00;97166.19;4989257;28;20735;-55
2020/12/26 07:14:42;;;;;;;17.35;9.23;;;;;;;-0.43;100.00;97161.84;4943269;28;20046;-52
2020/12/26 07:17:26;;;;;;;18.67;9.32;;;;;;;-0.37;100.00;97164.19;4981377;28;20046;-51
2020/12/26 07:19:58;;;;;;;15.75;8.70;;;;;;;-0.34;100.00;97164.09;4939854;28;20077;-50
2020/12/26 07:22:26;;;;;;;14.80;8.15;;;;;;;-0.31;100.00;97173.47;4984890;28;20043;-50
2020/12/26 07:24:54;;;;;;;12.43;7.25;;;;;;;-0.31;100.00;97178.63;4951400;28;20046;-51
2020/12/26 07:27:24;;;;;;;9.63;5.22;;;;;;;-0.35;100.00;97183.09;4988839;28;20512;-49
2020/12/26 07:30:05;;;;;;;11.70;6.25;;;;;;;-0.47;98.25;97187.94;4960260;28;20137;-50
2020/12/26 07:32:44;;;;;;;9.18;3.95;;;;;;;-0.60;98.68;97187.56;4986891;28;20041;-50
2020/12/26 07:35:33;;;;;;;12.05;6.05;;;;;;;-0.63;97.77;97188.50;4947098;28;20058;-52
2020/12/26 07:38:06;;;;;;;5.95;3.58;;;;;;;-0.61;96.76;97197.06;4976852;28;20048;-51
2020/12/26 07:40:35;;;;;;;8.40;3.15;;;;;;;-0.66;96.13;97195.56;4944109;28;20053;-49
2020/12/26 07:43:04;;;;;;;10.02;5.68;;;;;;;-0.63;95.01;97193.69;4969904;28;20127;-53
2020/12/26 07:45:33;;;;;;;9.07;5.13;;;;;;;-0.53;93.44;97194.19;4953573;28;20046;-49
2020/12/26 07:48:01;;;;;;;8.43;4.28;;;;;;;-0.39;91.25;97197.09;4984251;28;20433;-50
2020/12/26 07:50:30;;;;;;;11.25;4.05;;;;;;;-0.37;86.41;97194.44;4939579;28;20048;-52
2020/12/26 07:53:00;;;;;;;8.25;3.90;;;;;;;-0.24;82.20;97195.66;4988193;28;20497;-49
2020/12/26 07:55:29;;;;;;;5.60;3.47;;;;;;;-0.16;83.28;97201.38;4942286;28;20053;-52
2020/12/26 07:58:00;;;;;;;9.75;3.58;;;;;;;-0.12;80.68;97204.69;4985715;28;20375;-50
2020/12/26 08:00:29;;;;;;;6.88;3.15;;;;;;;-0.11;78.13;97201.19;4955092;28;22159;-52
2020/12/26 08:02:57;;;;;;;6.78;3.05;;;;;;;-0.10;77.82;97200.31;4984139;28;20035;-52
2020/12/26 08:05:27;;;;;;;5.93;3.10;;;;;;;-0.09;79.12;97205.41;4958338;28;20058;-51
2020/12/26 08:07:54;;;;;;;7.82;3.47;;;;;;;-0.09;79.79;97212.34;4979624;28;20126;-51
2020/12/26 08:10:23;;;;;;;6.35;3.45;;;;;;;-0.13;77.95;97209.03;4986588;28;20085;-54
2020/12/26 08:12:51;;;;;;;4.32;2.80;;;;;;;-0.11;77.45;97207.22;4929171;28;20044;-49
2020/12/26 08:15:21;;;;;;;7.47;3.75;;;;;;;-0.11;77.68;97212.41;4987114;28;20089;-49
2020/12/26 08:17:48;;;;;;;6.55;3.25;;;;;;;-0.08;76.09;97207.09;4956851;28;20378;-49
2020/12/26 08:20:16;;;;;;;5.88;3.28;;;;;;;0.12;79.21;97210.66;4979015;28;20042;-50
2020/12/26 08:22:43;;;;;;;5.13;3.22;;;;;;;0.07;76.64;97204.78;4951068;28;20113;-52
2020/12/26 08:25:13;;;;;;;7.63;3.95;;;;;;;0.14;77.73;97207.09;4985301;28;20669;-53
2020/12/26 08:27:41;;;;;;;7.80;4.13;;;;;;;0.16;78.59;97214.78;4931648;28;20050;-50
2020/12/26 08:30:12;;;;;;;8.20;4.07;;;;;;;0.20;78.85;97212.00;4967471;28;20074;-49
2020/12/26 08:33:01;;;;;;;7.40;4.00;;;;;;;0.23;79.04;97217.06;4947195;28;20418;-53
2020/12/26 08:35:31;;;;;;;6.25;3.53;;;;;;;0.08;78.22;97216.88;4957032;28;20505;-48
2020/12/26 08:38:02;;;;;;;5.63;3.70;;;;;;;0.05;78.23;97222.19;4951382;28;20046;-51
2020/12/26 08:40:31;;;;;;;5.93;3.75;;;;;;;0.23;79.53;97222.25;4984379;28;20070;-52
2020/12/26 08:42:59;;;;;;;7.03;4.15;;;;;;;0.19;79.42;97228.47;4953932;28;20045;-52
2020/12/26 08:45:32;;;;;;;5.70;3.35;;;;;;;0.14;79.88;97238.22;4981989;28;20085;-53
2020/12/26 08:48:13;;;;;;;7.75;4.20;;;;;;;0.25;79.59;97239.53;4947050;28;20138;-51
2020/12/26 08:50:40;;;;;;;6.35;3.47;;;;;;;0.29;78.89;97226.38;4983117;28;20054;-54
2020/12/26 08:53:09;;;;;;;6.32;3.65;;;;;;;0.19;78.36;97228.47;4950479;28;20096;-52
2020/12/26 08:55:46;;;;;;;8.25;4.28;;;;;;;0.39;77.49;97225.09;4987030;28;20528;-48
2020/12/26 08:58:25;;;;;;;4.88;3.15;;;;;;;0.47;78.44;97235.97;4954199;28;20133;-53
2020/12/26 09:00:55;;;;;;;4.93;3.10;;;;;;;0.37;78.50;97241.59;4967882;28;20042;-49
2020/12/26 09:03:23;;;;;;;6.35;4.20;;;;;;;0.41;78.42;97230.19;4938206;28;20039;-49
2020/12/26 09:05:51;;;;;;;6.25;3.53;;;;;;;0.30;78.76;97227.22;4988900;28;20596;-51
2020/12/26 09:08:18;;;;;;;5.80;3.38;;;;;;;0.40;79.01;97229.34;4943309;28;20048;-50
2020/12/26 09:10:56;;;;;;;5.32;3.92;;;;;;;0.28;79.78;97229.03;4987195;28;20042;-54
2020/12/26 09:13:31;;;;;;;6.32;3.80;;;;;;;0.04;78.20;97229.13;4958020;28;22375;-53
2020/12/26 09:16:01;;;;;;;6.10;3.95;;;;;;;0.06;79.65;97237.66;4978514;28;20050;-53
2020/12/26 09:18:29;;;;;;;6.15;4.18;;;;;;;0.07;79.74;97243.69;4952399;28;22733;-50
2020/12/26 09:20:58;;;;;;;8.15;5.65;;;;;;;0.11;78.34;97246.13;4986687;28;20038;-53
2020/12/26 09:23:31;;;;;;;8.73;5.22;;;;;;;-0.09;79.68;97243.47;4956410;28;20042;-52
2020/12/26 09:26:11;;;;;;;10.88;6.75;;;;;;;-0.07;81.51;97241.63;4976649;28;20057;-52
2020/12/26 09:28:44;;;;;;;6.63;4.35;;;;;;;0.19;79.63;97238.84;4957282;28;20054;-51
2020/12/26 09:31:12;;;;;;;6.75;4.47;;;;;;;0.29;79.63;97236.75;4985972;28;20049;-49
2020/12/26 09:33:40;;;;;;;8.02;4.05;;;;;;;0.35;77.96;97238.25;4995342;28;20042;-54
2020/12/26 09:36:10;;;;;;;6.60;3.78;;;;;;;0.27;76.64;97229.91;4964651;28;20500;-51
2020/12/26 09:38:37;;;;;;;6.13;2.90;;;;;;;0.42;74.05;97243.13;4979006;28;20049;-53
2020/12/26 09:41:12;;;;;;;5.20;2.47;;;;;;;0.44;73.33;97227.47;4942749;28;20054;-49
2020/12/26 09:43:39;;;;;;;6.72;3.42;;;;;;;0.44;75.69;97227.47;4987137;28;20046;-51
2020/12/26 09:46:08;;;;;;;5.78;3.67;;;;;;;0.39;74.41;97225.09;4945062;28;20165;-51
2020/12/26 09:48:35;;;;;;;5.60;3.40;;;;;;;0.49;74.57;97228.16;4977287;28;20041;-50
2020/12/26 09:51:02;;;;;;;5.72;3.40;;;;;;;0.76;72.68;97226.13;4939320;28;20070;-50
2020/12/26 09:53:30;;;;;;;5.15;3.47;;;;;;;0.82;73.02;97225.84;4983865;28;20572;-53
2020/12/26 09:55:57;;;;;;;7.22;3.47;;;;;;;0.88;72.12;97214.38;4940539;28;20030;-51
2020/12/26 09:58:24;;;;;;;4.18;2.72;;;;;;;0.63;72.85;97219.78;4984045;28;20381;-50
2020/12/26 10:00:51;;;;;;;4.80;3.45;;;;;;;0.66;73.28;97207.50;4942154;28;20497;-56
2020/12/26 10:03:19;;;;;;;6.03;2.97;;;;;;;0.78;72.47;97207.88;4979107;28;20121;-55
2020/12/26 10:05:46;;;;;;;3.78;2.03;;;;;;;0.57;70.44;97205.28;4949135;28;20096;-51
2020/12/26 10:08:14;;;;;;;3.60;2.10;;;;;;;0.73;68.66;97202.06;4989079;28;20041;-50
2020/12/26 10:10:41;;;;;;;4.03;1.52;;;;;;;0.52;68.58;97188.22;4951937;28;20504;-52
2020/12/26 10:13:07;;;;;;;3.97;2.50;;;;;;;0.68;69.31;97184.06;4977808;28;20516;-50
2020/12/26 10:15:34;;;;;;;3.00;1.83;;;;;;;0.78;67.75;97193.16;4940819;28;20039;-53
2020/12/26 10:18:01;;;;;;;5.18;1.60;;;;;;;0.79;67.02;97191.41;4980388;28;20046;-54
2020/12/26 10:20:30;;;;;;;2.75;1.70;;;;;;;0.97;66.58;97184.56;4983741;28;20042;-50
2020/12/26 10:22:57;;;;;;;6.40;1.60;;;;;;;1.03;65.47;97181.69;4945835;28;20175;-51
2020/12/26 10:25:25;;;;;;;2.33;1.30;;;;;;;1.05;62.23;97180.72;4983807;28;20097;-48
2020/12/26 10:27:52;;;;;;;1.77;0.75;;;;;;;1.01;62.37;97175.72;4949653;28;20043;-53
2020/12/26 10:30:19;;;;;;;1.50;0.90;;;;;;;0.98;62.87;97178.47;4982610;28;20651;-50
2020/12/26 10:32:47;;;;;;;2.10;0.98;;;;;;;1.06;61.38;97177.19;4941904;28;20085;-54
2020/12/26 10:35:14;;;;;;;2.72;1.08;;;;;;;1.04;62.42;97178.19;4983627;28;20088;-50
2020/12/26 10:37:43;;;;;;;2.58;1.10;;;;;;;0.97;62.92;97172.44;4932735;28;20050;-51
2020/12/26 10:40:10;;;;;;;2.55;1.40;;;;;;;1.01;62.38;97170.53;4985231;28;20042;-53
2020/12/26 10:42:37;;;;;;;1.90;1.10;;;;;;;1.10;62.13;97175.31;4950150;28;20042;-53
2020/12/26 10:45:04;;;;;;;1.60;1.10;;;;;;;1.06;62.45;97166.81;4985235;28;20042;-50
2020/12/26 10:47:31;;;;;;;3.35;1.10;;;;;;;1.11;63.37;97175.25;4954571;28;20469;-50
2020/12/26 10:49:58;;;;;;;2.78;1.20;;;;;;;1.27;63.16;97165.00;4989999;28;20507;-53
2020/12/26 10:52:25;;;;;;;2.67;1.63;;;;;;;1.10;62.63;97168.38;4942060;28;20049;-52
2020/12/26 10:54:53;;;;;;;3.72;1.40;;;;;;;1.16;63.48;97167.25;4962742;28;20035;-53
2020/12/26 10:57:20;;;;;;;2.05;1.20;;;;;;;1.34;66.97;97166.41;4956306;28;20109;-52
2020/12/26 10:59:48;;;;;;;3.40;1.65;;;;;;;1.28;63.36;97163.25;5004879;28;20089;-55
2020/12/26 11:02:17;;;;;;;3.00;1.60;;;;;;;1.31;64.75;97158.75;4961523;28;20041;-55
2020/12/26 11:04:44;;;;;;;2.40;1.15;;;;;;;1.55;63.27;97163.72;4989256;28;20042;-52
2020/12/26 11:07:12;;;;;;;2.15;1.05;;;;;;;1.14;61.81;97163.88;4986640;28;20501;-49
2020/12/26 11:09:39;;;;;;;3.90;1.25;;;;;;;1.15;62.46;97161.22;4945145;28;20092;-52
2020/12/26 11:12:07;;;;;;;1.58;1.00;;;;;;;1.24;64.88;97164.28;4991270;28;20038;-51
2020/12/26 11:14:34;;;;;;;2.75;1.40;;;;;;;1.33;65.11;97156.09;4933594;28;20038;-53
2020/12/26 11:17:01;;;;;;;1.88;1.17;;;;;;;1.34;65.86;97160.34;4987339;28;20042;-55
2020/12/26 11:19:29;;;;;;;1.55;1.17;;;;;;;1.30;65.74;97158.81;4957079;28;20108;-50
2020/12/26 11:21:56;;;;;;;1.67;1.10;;;;;;;1.03;62.72;97159.16;4987056;28;20092;-53
2020/12/26 11:24:23;;;;;;;3.40;1.42;;;;;;;1.33;66.81;97145.69;4951399;28;20123;-54
2020/12/26 11:26:50;;;;;;;2.33;1.25;;;;;;;1.51;68.68;97154.38;4986458;28;20054;-52
2020/12/26 11:29:18;;;;;;;4.43;1.40;;;;;;;1.35;65.82;97151.66;4941094;28;20089;-53
2020/12/26 11:31:45;;;;;;;3.42;1.10;;;;;;;1.43;63.50;97152.97;4982145;28;20038;-51
2020/12/26 11:34:12;;;;;;;2.58;1.27;;;;;;;1.26;64.01;97146.88;4940192;28;20042;-49
2020/12/26 11:36:39;;;;;;;4.90;1.65;;;;;;;1.24;64.50;97151.28;4982153;28;20409;-52
2020/12/26 11:39:08;;;;;;;3.33;1.20;;;;;;;1.27;66.03;97153.75;4955926;28;20218;-51
2020/12/26 11:41:35;;;;;;;5.60;1.58;;;;;;;1.52;64.48;97141.31;4998202;28;20031;-55